createdAt,value
2023-12-04T00:01:13.545Z,11.23
2023-12-04T00:03:40.675Z,12.33
2023-12-04T00:06:07.498Z,11.90
2023-12-04T00:08:34.317Z,11.60
2023-12-04T00:11:00.769Z,13.03
2023-12-04T00:13:27.902Z,11.90
2023-12-04T00:15:54.575Z,11.97
2023-12-04T00:18:21.128Z,13.10
2023-12-04T00:20:47.741Z,12.73
2023-12-04T00:23:14.139Z,11.97
2023-12-04T00:25:40.563Z,11.50
2023-12-04T00:28:06.991Z,12.43
2023-12-04T00:30:33.521Z,11.20
2023-12-04T00:33:00.316Z,12.60
2023-12-04T00:35:27.077Z,11.77
2023-12-04T00:37:54.273Z,12.23
2023-12-04T00:40:20.691Z,13.33
2023-12-04T00:42:47.226Z,12.33
2023-12-04T00:45:13.685Z,11.63
2023-12-04T00:47:40.201Z,12.20
2023-12-04T00:50:06.989Z,11.87
2023-12-04T00:52:33.998Z,11.53
2023-12-04T00:55:01.346Z,10.60
2023-12-04T00:57:27.853Z,10.87
2023-12-04T00:59:54.371Z,11.10
2023-12-04T01:02:20.836Z,11.10
2023-12-04T01:04:47.266Z,10.83
2023-12-04T01:07:13.879Z,10.47
2023-12-04T01:09:40.383Z,10.27
2023-12-04T01:12:07.090Z,10.80
2023-12-04T01:14:33.997Z,9.73
2023-12-04T01:17:00.393Z,9.67
2023-12-04T01:19:26.860Z,9.87
2023-12-04T01:21:54.696Z,10.20
2023-12-04T01:24:21.183Z,9.10
2023-12-04T01:26:47.649Z,8.77
2023-12-04T01:29:14.045Z,9.33
2023-12-04T01:31:40.507Z,8.97
2023-12-04T01:34:07.004Z,9.60
2023-12-04T01:36:33.509Z,9.50
2023-12-04T01:38:59.980Z,9.00
2023-12-04T01:41:26.520Z,9.67
2023-12-04T01:43:53.141Z,9.17
2023-12-04T01:46:19.600Z,9.20
2023-12-04T01:48:48.032Z,9.23
2023-12-04T01:51:15.469Z,9.30
2023-12-04T01:53:43.054Z,9.70
2023-12-04T01:56:10.121Z,8.97
2023-12-04T01:58:37.691Z,8.77
2023-12-04T02:01:05.699Z,9.40
2023-12-04T02:03:32.492Z,9.33
2023-12-04T02:06:01.670Z,9.57
2023-12-04T02:08:28.152Z,10.83
2023-12-04T02:10:54.771Z,10.60
2023-12-04T02:13:21.753Z,9.87
2023-12-04T02:15:54.203Z,10.53
2023-12-04T02:18:21.735Z,11.13
2023-12-04T02:20:48.213Z,11.37
2023-12-04T02:23:14.662Z,10.07
2023-12-04T02:25:41.329Z,10.73
2023-12-04T02:28:10.239Z,10.13
2023-12-04T02:30:38.989Z,10.07
2023-12-04T02:33:07.036Z,10.20
2023-12-04T02:35:36.068Z,9.90
2023-12-04T02:38:03.638Z,9.77
2023-12-04T02:40:30.449Z,9.27
2023-12-04T02:42:57.130Z,9.83
2023-12-04T02:45:23.911Z,9.47
2023-12-04T02:47:50.418Z,10.13
2023-12-04T02:50:17.062Z,9.97
2023-12-04T02:52:43.518Z,9.90
2023-12-04T02:55:10.035Z,9.87
2023-12-04T02:57:36.651Z,9.30
2023-12-04T03:00:05.668Z,10.37
2023-12-04T03:02:32.118Z,9.77
2023-12-04T03:04:58.888Z,9.63
2023-12-04T03:07:25.768Z,9.63
2023-12-04T03:09:52.378Z,9.03
2023-12-04T03:12:19.034Z,9.37
2023-12-04T03:14:45.753Z,9.83
2023-12-04T03:17:12.217Z,9.57
2023-12-04T03:19:38.745Z,9.70
2023-12-04T03:22:05.416Z,10.33
2023-12-04T03:24:31.906Z,9.57
2023-12-04T03:26:58.530Z,9.53
2023-12-04T03:29:25.004Z,9.63
2023-12-04T03:31:52.481Z,8.87
2023-12-04T03:34:19.058Z,10.10
2023-12-04T03:36:45.531Z,9.60
2023-12-04T03:39:12.166Z,10.03
2023-12-04T03:41:38.601Z,9.73
2023-12-04T03:44:05.060Z,9.87
2023-12-04T03:46:31.515Z,9.60
2023-12-04T03:48:58.085Z,9.57
2023-12-04T03:51:24.777Z,9.03
2023-12-04T03:53:51.394Z,9.23
2023-12-04T03:56:18.013Z,9.33
2023-12-04T03:58:44.431Z,9.53
2023-12-04T04:01:10.967Z,9.17
2023-12-04T04:03:37.590Z,8.77
2023-12-04T04:06:04.375Z,8.43
2023-12-04T04:08:30.818Z,8.97
2023-12-04T04:10:57.233Z,8.23
2023-12-04T04:13:23.856Z,9.13
2023-12-04T04:15:50.338Z,9.63
2023-12-04T04:18:16.932Z,8.83
2023-12-04T04:20:43.391Z,8.73
2023-12-04T04:23:09.862Z,8.60
2023-12-04T04:25:36.275Z,9.47
2023-12-04T04:28:02.776Z,7.83
2023-12-04T04:30:29.351Z,8.97
2023-12-04T04:32:56.137Z,7.60
2023-12-04T04:35:22.814Z,8.17
2023-12-04T04:37:51.821Z,8.40
2023-12-04T04:40:18.819Z,8.30
2023-12-04T04:42:45.428Z,8.00
2023-12-04T04:45:11.892Z,9.87
2023-12-04T04:47:38.447Z,8.23
2023-12-04T04:50:05.224Z,9.97
2023-12-04T04:52:32.113Z,11.40
2023-12-04T04:54:59.567Z,10.97
2023-12-04T04:57:26.272Z,11.60
2023-12-04T04:59:52.913Z,12.13
2023-12-04T05:02:19.336Z,12.20
2023-12-04T05:04:45.892Z,11.40
2023-12-04T05:07:12.449Z,12.00
2023-12-04T05:09:38.897Z,11.20
2023-12-04T05:12:05.735Z,12.00
2023-12-04T05:14:32.183Z,11.77
2023-12-04T05:16:58.642Z,10.30
2023-12-04T05:19:25.229Z,10.50
2023-12-04T05:21:52.052Z,10.70
2023-12-04T05:24:18.573Z,10.40
2023-12-04T05:26:45.035Z,11.30
2023-12-04T05:29:11.441Z,10.77
2023-12-04T05:31:37.886Z,9.77
2023-12-04T05:34:04.647Z,10.90
2023-12-04T05:36:31.175Z,11.07
2023-12-04T05:39:00.794Z,11.53
2023-12-04T05:41:29.237Z,10.23
2023-12-04T05:43:55.719Z,11.63
2023-12-04T05:46:22.358Z,13.03
2023-12-04T05:48:49.403Z,11.40
2023-12-04T05:51:16.463Z,10.93
2023-12-04T05:53:42.928Z,11.47
2023-12-04T05:56:09.962Z,11.73
2023-12-04T05:58:36.404Z,12.03
2023-12-04T06:01:03.706Z,12.27
2023-12-04T06:03:30.222Z,11.57
2023-12-04T06:05:58.426Z,11.00
2023-12-04T06:08:26.425Z,10.83
2023-12-04T06:10:53.050Z,11.57
2023-12-04T06:13:19.880Z,10.77
2023-12-04T06:15:46.409Z,10.97
2023-12-04T06:18:12.997Z,11.53
2023-12-04T06:20:39.509Z,10.70
2023-12-04T06:23:06.165Z,10.83
2023-12-04T06:25:32.866Z,11.43
2023-12-04T06:27:59.652Z,10.67
2023-12-04T06:30:26.624Z,11.00
2023-12-04T06:32:53.644Z,11.07
2023-12-04T06:35:21.023Z,9.83
2023-12-04T06:37:49.544Z,10.37
2023-12-04T06:40:16.440Z,10.60
2023-12-04T06:42:43.196Z,9.57
2023-12-04T06:45:10.230Z,9.60
2023-12-04T06:47:38.030Z,8.77
2023-12-04T06:50:04.800Z,9.97
2023-12-04T06:52:31.222Z,9.30
2023-12-04T06:54:57.672Z,9.10
2023-12-04T06:57:24.285Z,9.53
2023-12-04T06:59:50.929Z,9.77
2023-12-04T07:02:17.482Z,8.50
2023-12-04T07:04:44.031Z,8.87
2023-12-04T07:07:10.623Z,8.73
2023-12-04T07:09:37.141Z,8.50
2023-12-04T07:12:04.043Z,8.50
2023-12-04T07:14:30.676Z,8.67
2023-12-04T07:16:57.347Z,8.80
2023-12-04T07:19:24.035Z,9.03
2023-12-04T07:21:51.079Z,8.70
2023-12-04T07:24:17.652Z,9.17
2023-12-04T07:26:44.243Z,8.67
2023-12-04T07:29:10.757Z,8.93
2023-12-04T07:31:37.170Z,8.83
2023-12-04T07:34:04.062Z,9.10
2023-12-04T07:36:30.703Z,9.47
2023-12-04T07:38:57.090Z,9.30
2023-12-04T07:41:23.612Z,9.17
2023-12-04T07:43:50.575Z,9.40
2023-12-04T07:46:17.450Z,8.60
2023-12-04T07:48:45.230Z,8.77
2023-12-04T07:51:11.973Z,8.83
2023-12-04T07:53:38.471Z,7.73
2023-12-04T07:56:05.652Z,8.67
2023-12-04T07:58:32.791Z,8.23
2023-12-04T08:01:00.373Z,7.90
2023-12-04T08:03:27.322Z,8.40
2023-12-04T08:05:54.842Z,8.00
2023-12-04T08:08:22.257Z,8.23
2023-12-04T08:10:48.951Z,8.43
2023-12-04T08:13:15.847Z,8.10
2023-12-04T08:15:42.401Z,8.17
2023-12-04T08:18:08.928Z,9.00
2023-12-04T08:20:40.203Z,8.17
2023-12-04T08:23:08.005Z,8.80
2023-12-04T08:25:34.516Z,8.50
2023-12-04T08:28:04.501Z,8.10
2023-12-04T08:30:31.052Z,7.90
2023-12-04T08:32:57.559Z,7.73
2023-12-04T08:35:24.236Z,9.03
2023-12-04T08:37:50.901Z,7.50
2023-12-04T08:40:18.152Z,8.77
2023-12-04T08:42:46.118Z,7.90
2023-12-04T08:45:12.627Z,7.90
2023-12-04T08:47:39.140Z,7.60
2023-12-04T08:50:06.426Z,7.80
2023-12-04T08:52:34.033Z,7.70
2023-12-04T08:55:01.702Z,7.40
2023-12-04T08:57:28.615Z,7.30
2023-12-04T08:59:55.141Z,7.67
2023-12-04T09:02:22.134Z,7.30
2023-12-04T09:04:49.046Z,7.70
2023-12-04T09:09:47.493Z,7.43
2023-12-04T09:12:14.349Z,8.03
2023-12-04T09:14:40.878Z,7.93
2023-12-04T09:17:07.446Z,7.57
2023-12-04T09:19:34.076Z,7.60
2023-12-04T09:22:08.478Z,7.77
2023-12-04T09:24:39.555Z,6.97
2023-12-04T09:27:07.974Z,7.37
2023-12-04T09:29:35.168Z,7.37
2023-12-04T09:32:01.775Z,7.80
2023-12-04T09:34:28.535Z,8.30
2023-12-04T09:36:59.764Z,8.73
2023-12-04T09:39:27.894Z,9.30
2023-12-04T09:41:56.528Z,8.67
2023-12-04T09:44:25.195Z,8.20
2023-12-04T09:46:53.006Z,8.20
2023-12-04T09:49:20.669Z,8.03
2023-12-04T09:51:47.738Z,8.20
2023-12-04T09:54:17.626Z,8.00
2023-12-04T09:56:44.487Z,8.93
2023-12-04T09:59:14.169Z,8.20
2023-12-04T10:01:41.539Z,8.60
2023-12-04T10:04:08.980Z,8.73
2023-12-04T10:06:38.140Z,8.77
2023-12-04T10:09:04.611Z,9.27
2023-12-04T10:11:31.734Z,8.53
2023-12-04T10:14:00.149Z,10.37
2023-12-04T10:16:37.564Z,8.67
2023-12-04T10:19:18.971Z,8.77
2023-12-04T10:21:47.555Z,8.87
2023-12-04T10:24:27.464Z,8.00
2023-12-04T10:26:54.048Z,8.50
2023-12-04T10:29:20.758Z,8.83
2023-12-04T10:31:49.138Z,8.57
2023-12-04T10:34:15.714Z,8.30
2023-12-04T10:36:42.601Z,8.27
2023-12-04T10:39:09.633Z,8.17
2023-12-04T10:41:36.133Z,8.53
2023-12-04T10:44:10.034Z,8.60
2023-12-04T10:46:38.461Z,9.50
2023-12-04T10:49:06.756Z,9.13
2023-12-04T10:51:35.386Z,9.90
2023-12-04T10:54:02.210Z,9.73
2023-12-04T10:56:39.155Z,9.70
2023-12-04T10:59:11.513Z,9.70
2023-12-04T11:01:39.758Z,10.50
2023-12-04T11:04:11.220Z,10.77
2023-12-04T11:06:41.407Z,10.27
2023-12-04T11:09:09.224Z,10.13
2023-12-04T11:11:41.882Z,10.23
2023-12-04T11:14:11.625Z,9.30
2023-12-04T11:16:58.305Z,11.10
2023-12-04T11:19:29.194Z,9.93
2023-12-04T11:21:59.631Z,10.00
2023-12-04T11:24:26.379Z,10.53
2023-12-04T11:26:54.588Z,10.07
2023-12-04T11:29:22.687Z,10.43
2023-12-04T11:31:49.312Z,9.80
2023-12-04T11:34:15.875Z,10.57
2023-12-04T11:36:42.536Z,9.97
2023-12-04T11:39:12.763Z,9.93
2023-12-04T11:41:41.620Z,9.60
2023-12-04T11:44:16.532Z,9.50
2023-12-04T11:47:07.253Z,10.00
2023-12-04T11:49:34.415Z,10.33
2023-12-04T11:52:05.450Z,8.70
2023-12-04T11:54:59.138Z,10.33
2023-12-04T11:57:27.182Z,9.83
2023-12-04T12:00:09.538Z,9.70
2023-12-04T12:03:14.517Z,9.77
2023-12-04T12:05:29.341Z,8.70
2023-12-04T12:07:56.387Z,9.53
2023-12-04T12:10:23.154Z,9.77
2023-12-04T12:12:49.872Z,9.67
2023-12-04T12:15:16.481Z,9.87
2023-12-04T12:17:42.944Z,9.60
2023-12-04T12:20:12.558Z,9.20
2023-12-04T12:22:42.433Z,9.53
2023-12-04T12:25:09.765Z,9.23
2023-12-04T12:27:36.236Z,9.80
2023-12-04T12:30:04.570Z,10.40
2023-12-04T12:32:35.626Z,9.53
2023-12-04T12:35:02.411Z,9.53
2023-12-04T12:37:29.620Z,9.53
2023-12-04T12:39:56.098Z,10.20
2023-12-04T12:42:27.197Z,9.57
2023-12-04T12:44:54.686Z,9.80
2023-12-04T12:47:21.124Z,9.43
2023-12-04T12:49:48.163Z,9.63
2023-12-04T12:52:15.222Z,9.60
2023-12-04T12:54:42.430Z,9.83
2023-12-04T12:57:10.474Z,9.40
2023-12-04T12:59:38.257Z,8.80
2023-12-04T13:02:06.186Z,9.73
2023-12-04T13:04:35.750Z,9.57
2023-12-04T13:07:04.334Z,8.43
2023-12-04T13:09:31.312Z,8.30
2023-12-04T13:11:57.806Z,9.17
2023-12-04T13:14:24.449Z,8.07
2023-12-04T13:16:51.124Z,9.23
2023-12-04T13:19:18.305Z,8.97
2023-12-04T13:21:45.586Z,8.67
2023-12-04T13:24:12.157Z,7.80
2023-12-04T13:26:38.768Z,8.77
2023-12-04T13:29:05.282Z,8.40
2023-12-04T13:31:34.072Z,9.40
2023-12-04T13:34:00.640Z,8.77
2023-12-04T13:36:28.498Z,8.70
2023-12-04T13:38:55.200Z,9.33
2023-12-04T13:41:40.193Z,8.80
2023-12-04T13:44:06.692Z,8.10
2023-12-04T13:46:33.128Z,8.03
2023-12-04T13:49:00.302Z,8.50
2023-12-04T13:51:27.883Z,8.93
2023-12-04T13:54:02.106Z,8.13
2023-12-04T13:56:50.616Z,7.60
2023-12-04T13:59:21.112Z,8.27
2023-12-04T14:01:48.015Z,8.60
2023-12-04T14:04:14.850Z,7.57
2023-12-04T14:06:41.560Z,8.60
2023-12-04T14:09:14.017Z,8.10
2023-12-04T14:11:41.540Z,7.90
2023-12-04T14:14:08.483Z,8.60
2023-12-04T14:16:34.949Z,7.43
2023-12-04T14:19:02.129Z,8.20
2023-12-04T14:21:29.256Z,8.30
2023-12-04T14:23:55.725Z,8.13
2023-12-04T14:26:22.254Z,7.70
2023-12-04T14:28:48.789Z,8.57
2023-12-04T14:31:15.277Z,7.90
2023-12-04T14:33:43.415Z,8.63
2023-12-04T14:36:13.028Z,8.40
2023-12-04T14:38:39.896Z,8.73
2023-12-04T14:41:07.747Z,9.43
2023-12-04T14:43:34.925Z,8.40
2023-12-04T14:46:03.550Z,8.13
2023-12-04T14:48:30.252Z,8.67
2023-12-04T14:50:59.055Z,7.97
2023-12-04T14:53:34.372Z,8.00
2023-12-04T14:56:34.974Z,8.27
2023-12-04T14:59:22.600Z,7.17
2023-12-04T15:02:08.839Z,7.30
2023-12-04T15:04:47.371Z,7.43
2023-12-04T15:07:42.290Z,7.80
2023-12-04T15:10:27.476Z,7.90
2023-12-04T15:13:06.000Z,7.93
2023-12-04T15:15:51.613Z,7.90
2023-12-04T15:18:36.790Z,7.63
2023-12-04T15:21:04.086Z,7.47
2023-12-04T15:23:30.962Z,7.17
2023-12-04T15:25:57.541Z,7.53
2023-12-04T15:28:24.060Z,7.30
2023-12-04T15:30:50.643Z,7.00
2023-12-04T15:33:17.165Z,7.67
2023-12-04T15:35:43.782Z,7.07
2023-12-04T15:38:10.225Z,6.87
2023-12-04T15:40:37.270Z,7.00
2023-12-04T15:45:55.201Z,7.80
2023-12-04T15:48:21.767Z,7.20
2023-12-04T15:50:48.403Z,6.80
2023-12-04T15:53:14.951Z,7.17
2023-12-04T15:55:41.396Z,7.53
2023-12-04T15:58:07.815Z,7.10
2023-12-04T16:00:35.171Z,7.20
2023-12-04T16:03:04.107Z,7.27
2023-12-04T16:05:30.901Z,7.10
2023-12-04T16:07:58.156Z,6.80
2023-12-04T16:10:24.686Z,7.03
2023-12-04T16:12:51.397Z,6.73
2023-12-04T16:15:18.499Z,6.80
2023-12-04T16:17:45.208Z,6.73
2023-12-04T16:20:12.533Z,7.10
2023-12-04T16:22:42.413Z,7.17
2023-12-04T16:25:11.184Z,7.40
2023-12-04T16:27:39.479Z,7.67
2023-12-04T16:30:07.710Z,7.47
2023-12-04T16:32:34.609Z,7.10
2023-12-04T16:35:02.634Z,7.67
2023-12-04T16:37:29.966Z,7.60
2023-12-04T16:39:56.672Z,7.40
2023-12-04T16:42:23.436Z,8.43
2023-12-04T16:44:50.054Z,8.07
2023-12-04T16:47:16.657Z,7.13
2023-12-04T16:49:44.662Z,7.43
2023-12-04T16:52:15.686Z,7.93
2023-12-04T16:54:42.839Z,7.63
2023-12-04T16:57:09.611Z,8.17
2023-12-04T16:59:36.123Z,7.03
2023-12-04T17:02:02.595Z,7.47
2023-12-04T17:04:30.560Z,7.00
2023-12-04T17:06:57.947Z,7.00
2023-12-04T17:09:24.908Z,6.70
2023-12-04T17:11:52.366Z,6.33
2023-12-04T17:14:19.018Z,5.73
2023-12-04T17:16:45.561Z,6.10
2023-12-04T17:19:12.832Z,6.33
2023-12-04T17:21:39.849Z,5.90
2023-12-04T17:24:06.586Z,6.07
2023-12-04T17:26:33.372Z,6.23
2023-12-04T17:28:59.991Z,6.70
2023-12-04T17:31:28.498Z,5.73
2023-12-04T17:33:55.915Z,5.77
2023-12-04T17:36:22.876Z,5.90
2023-12-04T17:38:49.465Z,5.63
2023-12-04T17:41:16.009Z,5.77
2023-12-04T17:43:42.456Z,6.27
2023-12-04T17:46:09.419Z,6.20
2023-12-04T17:48:35.897Z,6.70
2023-12-04T17:51:04.842Z,5.80
2023-12-04T17:53:31.282Z,6.57
2023-12-04T17:55:57.791Z,6.63
2023-12-04T17:58:24.376Z,6.60
2023-12-04T18:00:50.937Z,6.60
2023-12-04T18:03:17.640Z,7.27
2023-12-04T18:05:44.267Z,7.07
2023-12-04T18:08:11.377Z,7.63
2023-12-04T18:10:39.461Z,7.63
2023-12-04T18:13:05.897Z,8.17
2023-12-04T18:15:32.523Z,7.60
2023-12-04T18:17:59.191Z,7.57
2023-12-04T18:20:25.746Z,7.90
2023-12-04T18:22:54.140Z,7.33
2023-12-04T18:25:22.443Z,8.07
2023-12-04T18:27:49.220Z,8.10
2023-12-04T18:30:17.323Z,8.43
2023-12-04T18:32:44.459Z,8.40
2023-12-04T18:35:11.762Z,8.00
2023-12-04T18:37:48.696Z,8.00
2023-12-04T18:40:16.652Z,8.20
2023-12-04T18:42:43.489Z,7.80
2023-12-04T18:45:10.537Z,7.80
2023-12-04T18:47:40.083Z,7.97
2023-12-04T18:50:07.832Z,8.43
2023-12-04T18:52:34.998Z,8.67
2023-12-04T18:55:01.478Z,8.30
2023-12-04T18:57:27.931Z,8.47
2023-12-04T18:59:54.583Z,8.17
2023-12-04T19:02:21.201Z,8.17
2023-12-04T19:04:47.817Z,8.10
2023-12-04T19:07:14.462Z,8.63
2023-12-04T19:09:40.935Z,6.90
2023-12-04T19:12:07.824Z,8.93
2023-12-04T19:14:35.039Z,8.93
2023-12-04T19:17:03.418Z,9.17
2023-12-04T19:19:30.277Z,9.33
2023-12-04T19:21:57.335Z,8.97
2023-12-04T19:24:24.145Z,8.23
2023-12-04T19:26:50.627Z,9.60
2023-12-04T19:29:23.949Z,8.90
2023-12-04T19:31:54.241Z,8.57
2023-12-04T19:34:21.518Z,8.93
2023-12-04T19:36:49.731Z,8.50
2023-12-04T19:39:16.307Z,8.93
2023-12-04T19:41:42.764Z,8.03
2023-12-04T19:44:09.977Z,8.50
2023-12-04T19:46:43.496Z,8.63
2023-12-04T19:49:11.060Z,8.27
2023-12-04T19:51:44.387Z,8.53
2023-12-04T19:54:11.019Z,8.70
2023-12-04T19:56:37.530Z,8.00
2023-12-04T19:59:04.002Z,8.97
2023-12-04T20:01:30.545Z,8.10
2023-12-04T20:03:58.494Z,7.83
2023-12-04T20:06:25.247Z,8.10
2023-12-04T20:08:52.241Z,8.20
2023-12-04T20:11:19.471Z,8.77
2023-12-04T20:13:45.890Z,8.37
2023-12-04T20:16:13.717Z,7.67
2023-12-04T20:18:40.685Z,8.30
2023-12-04T20:21:07.962Z,7.87
2023-12-04T20:23:35.259Z,7.53
2023-12-04T20:26:02.431Z,7.67
2023-12-04T20:28:29.014Z,6.70
2023-12-04T20:30:56.008Z,8.47
2023-12-04T20:33:23.096Z,7.87
2023-12-04T20:35:50.632Z,7.73
2023-12-04T20:38:18.191Z,8.37
2023-12-04T20:40:47.265Z,7.60
2023-12-04T20:43:14.243Z,7.43
2023-12-04T20:45:42.627Z,6.97
2023-12-04T20:48:10.522Z,7.20
2023-12-04T20:50:38.001Z,7.87
2023-12-04T20:53:04.438Z,6.77
2023-12-04T20:55:30.873Z,7.07
2023-12-04T20:57:57.573Z,7.40
2023-12-04T21:00:24.804Z,7.53
2023-12-04T21:02:55.009Z,7.23
2023-12-04T21:05:22.911Z,7.97
2023-12-04T21:07:49.726Z,7.17
2023-12-04T21:10:17.989Z,8.07
2023-12-04T21:12:44.874Z,7.93
2023-12-04T21:15:11.657Z,8.03
2023-12-04T21:17:39.443Z,8.63
2023-12-04T21:20:08.103Z,7.43
2023-12-04T21:22:35.076Z,8.63
2023-12-04T21:25:02.765Z,8.53
2023-12-04T21:27:31.583Z,8.37
2023-12-04T21:29:58.985Z,9.23
2023-12-04T21:32:25.638Z,9.33
2023-12-04T21:34:52.358Z,9.73
2023-12-04T21:37:19.562Z,9.57
2023-12-04T21:39:48.475Z,10.47
2023-12-04T21:42:15.408Z,10.07
2023-12-04T21:44:41.915Z,10.60
2023-12-04T21:47:08.341Z,10.47
2023-12-04T21:49:34.853Z,10.67
2023-12-04T21:52:01.942Z,10.97
2023-12-04T21:54:28.439Z,11.50
2023-12-04T21:56:55.876Z,10.57
2023-12-04T21:59:40.926Z,10.90
2023-12-04T22:02:07.431Z,10.63
2023-12-04T22:04:34.106Z,10.67
2023-12-04T22:07:00.759Z,11.57
2023-12-04T22:09:27.805Z,11.00
2023-12-04T22:11:54.641Z,10.70
2023-12-04T22:14:24.783Z,10.50
2023-12-04T22:16:51.716Z,10.10
2023-12-04T22:19:18.286Z,10.30
2023-12-04T22:21:44.973Z,10.37
2023-12-04T22:24:11.509Z,10.43
2023-12-04T22:26:37.948Z,10.87
2023-12-04T22:29:04.629Z,10.67
2023-12-04T22:31:31.390Z,10.13
2023-12-04T22:33:58.024Z,10.50
2023-12-04T22:36:24.757Z,10.87
2023-12-04T22:38:51.362Z,10.10
2023-12-04T22:41:17.902Z,10.13
2023-12-04T22:43:45.043Z,10.93
2023-12-04T22:46:12.693Z,10.70
2023-12-04T22:48:39.427Z,10.83
2023-12-04T22:51:06.794Z,11.73
2023-12-04T22:53:33.213Z,10.53
2023-12-04T22:55:59.738Z,11.57
2023-12-04T22:58:26.354Z,11.67
2023-12-04T23:00:54.398Z,11.13
2023-12-04T23:03:21.722Z,11.93
2023-12-04T23:05:49.815Z,12.17
2023-12-04T23:08:18.524Z,12.50
2023-12-04T23:10:45.299Z,12.37
2023-12-04T23:13:11.771Z,12.70
2023-12-04T23:15:39.665Z,12.50
2023-12-04T23:18:06.387Z,12.30
2023-12-04T23:20:32.895Z,12.57
2023-12-04T23:22:59.374Z,12.50
2023-12-04T23:25:26.295Z,12.83
2023-12-04T23:27:52.980Z,13.00
2023-12-04T23:30:19.965Z,14.30
2023-12-04T23:32:46.587Z,12.77
2023-12-04T23:35:13.136Z,13.23
2023-12-04T23:37:39.557Z,13.93
2023-12-04T23:40:06.520Z,13.23
2023-12-04T23:42:32.967Z,14.20
2023-12-04T23:44:59.527Z,12.43
2023-12-04T23:47:26.182Z,13.57
2023-12-04T23:49:52.800Z,13.30
2023-12-04T23:52:19.344Z,14.30
2023-12-04T23:54:46.293Z,13.07
2023-12-04T23:57:12.798Z,13.80
2023-12-04T23:59:39.282Z,13.77
